createdAt,value
2023-04-15T00:00:07.526Z,85.22
2023-04-15T00:03:09.873Z,86.31
2023-04-15T00:06:12.626Z,86.26
2023-04-15T00:09:14.586Z,86.94
2023-04-15T00:12:16.421Z,86.10
2023-04-15T00:15:18.446Z,86.44
2023-04-15T00:18:20.385Z,87.04
2023-04-15T00:21:22.187Z,85.38
2023-04-15T00:24:24.267Z,85.22
2023-04-15T00:27:26.191Z,86.54
2023-04-15T00:30:28.169Z,85.59
2023-04-15T00:33:30.105Z,86.07
2023-04-15T00:36:33.897Z,86.05
2023-04-15T00:39:35.942Z,85.57
2023-04-15T00:42:38.200Z,86.41
2023-04-15T00:45:40.059Z,86.85
2023-04-15T00:48:42.461Z,86.13
2023-04-15T00:51:44.860Z,86.75
2023-04-15T00:54:46.788Z,87.36
2023-04-15T00:57:48.714Z,86.61
2023-04-15T01:00:54.439Z,85.90
2023-04-15T01:04:00.431Z,87.85
2023-04-15T01:07:02.626Z,88.42
2023-04-15T01:10:04.999Z,87.82
2023-04-15T01:13:06.999Z,87.97
2023-04-15T01:16:09.798Z,87.72
2023-04-15T01:19:12.213Z,87.98
2023-04-15T01:22:14.556Z,88.14
2023-04-15T01:25:20.724Z,88.90
2023-04-15T01:28:22.845Z,88.72
2023-04-15T01:31:24.833Z,88.93
2023-04-15T01:34:27.117Z,88.82
2023-04-15T01:37:29.757Z,89.09
2023-04-15T01:40:31.687Z,89.55
2023-04-15T01:43:37.468Z,89.42
2023-04-15T01:46:39.376Z,89.33
2023-04-15T01:49:41.964Z,89.52
2023-04-15T01:52:43.983Z,89.44
2023-04-15T01:55:45.771Z,89.15
2023-04-15T01:58:47.781Z,89.51
2023-04-15T02:01:50.245Z,90.09
2023-04-15T02:04:52.144Z,89.53
2023-04-15T02:07:54.516Z,89.40
2023-04-15T02:10:56.774Z,89.68
2023-04-15T02:13:58.694Z,89.97
2023-04-15T02:17:07.179Z,89.78
2023-04-15T02:20:09.881Z,90.21
2023-04-15T02:23:11.799Z,89.46
2023-04-15T02:26:14.012Z,89.24
2023-04-15T02:29:15.888Z,89.22
2023-04-15T02:32:18.693Z,88.87
2023-04-15T02:35:21.076Z,89.14
2023-04-15T02:38:23.095Z,89.28
2023-04-15T02:41:27.794Z,88.86
2023-04-15T02:44:29.634Z,88.12
2023-04-15T02:47:31.544Z,88.79
2023-04-15T02:50:33.557Z,88.51
2023-04-15T02:53:36.249Z,88.66
2023-04-15T02:56:38.115Z,88.69
2023-04-15T02:59:40.378Z,88.45
2023-04-15T03:02:43.199Z,87.66
2023-04-15T03:05:45.374Z,87.75
2023-04-15T03:08:47.271Z,87.44
2023-04-15T03:11:49.476Z,87.18
2023-04-15T03:14:51.404Z,86.40
2023-04-15T03:17:53.365Z,86.77
2023-04-15T03:20:55.389Z,86.82
2023-04-15T03:23:57.692Z,86.42
2023-04-15T03:26:59.627Z,86.06
2023-04-15T03:30:01.722Z,86.08
2023-04-15T03:33:03.647Z,85.71
2023-04-15T03:36:06.079Z,84.99
2023-04-15T03:39:08.149Z,84.75
2023-04-15T03:42:10.016Z,84.35
2023-04-15T03:45:12.047Z,83.69
2023-04-15T03:48:17.616Z,83.02
2023-04-15T03:51:19.912Z,83.47
2023-04-15T03:54:21.943Z,83.77
2023-04-15T03:57:23.817Z,83.36
2023-04-15T04:00:25.708Z,84.49
2023-04-15T04:03:27.931Z,82.77
2023-04-15T04:06:29.972Z,83.57
2023-04-15T04:09:32.065Z,83.58
2023-04-15T04:12:34.014Z,83.59
2023-04-15T04:15:36.374Z,83.50
2023-04-15T04:18:39.017Z,84.07
2023-04-15T04:21:41.067Z,83.19
2023-04-15T04:24:42.947Z,83.16
2023-04-15T04:27:45.767Z,80.90
2023-04-15T04:30:47.757Z,77.38
2023-04-15T04:33:49.537Z,75.96
2023-04-15T04:36:51.632Z,73.30
2023-04-15T04:39:53.499Z,71.35
2023-04-15T04:42:55.514Z,71.86
2023-04-15T04:45:57.527Z,72.39
2023-04-15T04:48:59.549Z,71.49
2023-04-15T04:52:01.751Z,71.67
2023-04-15T04:55:03.740Z,73.06
2023-04-15T04:58:05.755Z,73.02
2023-04-15T05:01:07.948Z,73.92
2023-04-15T05:04:09.966Z,73.35
2023-04-15T05:07:12.198Z,74.04
2023-04-15T05:10:15.399Z,74.88
2023-04-15T05:13:17.245Z,74.95
2023-04-15T05:16:20.084Z,74.63
2023-04-15T05:19:22.184Z,75.70
2023-04-15T05:22:24.027Z,76.56
2023-04-15T05:25:26.154Z,77.57
2023-04-15T05:28:28.233Z,76.46
2023-04-15T05:31:30.376Z,75.58
2023-04-15T05:34:32.387Z,74.22
2023-04-15T05:37:34.213Z,72.96
2023-04-15T05:40:36.892Z,65.80
2023-04-15T05:43:39.556Z,62.05
2023-04-15T05:46:41.804Z,58.59
2023-04-15T05:49:43.668Z,57.65
2023-04-15T05:52:46.175Z,55.23
2023-04-15T05:55:47.997Z,55.98
2023-04-15T05:58:50.982Z,55.35
2023-04-15T06:01:54.410Z,56.32
2023-04-15T06:04:56.247Z,54.54
2023-04-15T06:07:58.080Z,55.29
2023-04-15T06:11:00.157Z,53.78
2023-04-15T06:14:02.183Z,51.61
2023-04-15T06:17:04.212Z,52.99
2023-04-15T06:20:06.570Z,52.76
2023-04-15T06:23:08.452Z,52.89
2023-04-15T06:26:10.357Z,57.22
2023-04-15T06:29:13.517Z,62.18
2023-04-15T06:32:16.312Z,62.95
2023-04-15T06:35:18.455Z,62.15
2023-04-15T06:38:20.498Z,64.25
2023-04-15T06:41:22.773Z,63.59
2023-04-15T06:44:24.702Z,65.09
2023-04-15T06:47:26.792Z,64.15
2023-04-15T06:50:28.749Z,64.36
2023-04-15T06:53:30.684Z,64.36
2023-04-15T06:56:33.950Z,64.69
2023-04-15T06:59:36.202Z,64.75
2023-04-15T07:02:38.484Z,65.36
2023-04-15T07:05:40.678Z,62.41
2023-04-15T07:08:42.945Z,63.98
2023-04-15T07:11:45.757Z,64.57
2023-04-15T07:14:47.908Z,64.50
2023-04-15T07:17:50.041Z,64.39
2023-04-15T07:20:52.204Z,63.97
2023-04-15T07:23:54.110Z,60.80
2023-04-15T07:27:00.845Z,57.51
2023-04-15T07:30:03.545Z,57.24
2023-04-15T07:33:05.720Z,55.15
2023-04-15T07:36:07.952Z,60.06
2023-04-15T07:39:10.204Z,61.73
2023-04-15T07:42:12.091Z,63.88
2023-04-15T07:45:14.036Z,63.69
2023-04-15T07:48:16.038Z,61.54
2023-04-15T07:51:17.988Z,61.92
2023-04-15T07:54:20.042Z,61.85
2023-04-15T07:57:21.988Z,63.22
2023-04-15T08:00:23.965Z,63.73
2023-04-15T08:03:26.393Z,62.63
2023-04-15T08:06:28.954Z,60.57
2023-04-15T08:09:30.866Z,56.72
2023-04-15T08:12:33.080Z,56.40
2023-04-15T08:15:35.091Z,51.83
2023-04-15T08:18:38.180Z,50.30
2023-04-15T08:21:41.113Z,52.14
2023-04-15T08:24:43.381Z,45.27
2023-04-15T08:27:45.847Z,45.91
2023-04-15T08:30:48.177Z,44.66
2023-04-15T08:33:52.562Z,44.65
2023-04-15T08:36:54.369Z,45.70
2023-04-15T08:39:56.366Z,49.51
2023-04-15T08:43:01.297Z,49.72
2023-04-15T08:46:05.222Z,47.88
2023-04-15T08:49:10.957Z,44.25
2023-04-15T08:52:13.150Z,42.38
2023-04-15T08:55:16.145Z,40.57
2023-04-15T08:58:20.174Z,47.74
2023-04-15T09:01:23.198Z,47.42
2023-04-15T09:04:25.465Z,46.73
2023-04-15T09:07:27.714Z,47.03
2023-04-15T09:10:30.952Z,47.50
2023-04-15T09:13:33.021Z,44.41
2023-04-15T09:17:03.995Z,43.61
2023-04-15T09:20:09.854Z,47.53
2023-04-15T09:23:14.210Z,49.05
2023-04-15T09:26:17.092Z,51.83
2023-04-15T09:29:19.304Z,55.90
2023-04-15T09:32:23.649Z,58.07
2023-04-15T09:35:27.529Z,57.65
2023-04-15T09:38:29.684Z,57.50
2023-04-15T09:41:31.509Z,55.59
2023-04-15T09:44:39.073Z,52.37
2023-04-15T09:47:51.250Z,53.41
2023-04-15T09:50:54.098Z,54.57
2023-04-15T09:53:56.725Z,55.93
2023-04-15T09:57:10.208Z,53.43
2023-04-15T10:00:12.972Z,46.52
2023-04-15T10:03:22.817Z,53.83
2023-04-15T10:06:27.004Z,53.51
2023-04-15T10:09:29.428Z,51.16
2023-04-15T10:12:31.860Z,53.13
2023-04-15T10:15:34.507Z,54.44
2023-04-15T10:18:39.865Z,58.25
2023-04-15T10:21:42.033Z,56.22
2023-04-15T10:24:45.440Z,58.61
2023-04-15T10:27:48.768Z,59.30
2023-04-15T10:30:51.070Z,59.28
2023-04-15T10:33:53.732Z,51.66
2023-04-15T10:36:57.945Z,55.09
2023-04-15T10:39:59.859Z,56.89
2023-04-15T10:43:03.079Z,53.13
2023-04-15T10:46:07.857Z,51.17
2023-04-15T10:49:24.295Z,46.48
2023-04-15T10:52:28.463Z,48.42
2023-04-15T10:55:34.652Z,47.91
2023-04-15T10:58:44.187Z,46.48
2023-04-15T11:02:01.177Z,53.71
2023-04-15T11:05:03.971Z,59.06
2023-04-15T11:08:05.917Z,61.14
2023-04-15T11:11:07.888Z,60.83
2023-04-15T11:14:16.247Z,62.80
2023-04-15T11:17:28.878Z,63.99
2023-04-15T11:20:32.885Z,65.29
2023-04-15T11:23:44.217Z,68.36
2023-04-15T11:26:46.136Z,70.29
2023-04-15T11:29:48.068Z,73.65
2023-04-15T11:32:54.619Z,73.18
2023-04-15T11:35:56.516Z,74.63
2023-04-15T11:38:59.749Z,71.14
2023-04-15T11:42:01.903Z,72.09
2023-04-15T11:45:11.647Z,68.83
2023-04-15T11:48:14.176Z,71.25
2023-04-15T11:51:16.661Z,73.61
2023-04-15T11:54:21.696Z,73.06
2023-04-15T11:57:31.894Z,73.64
2023-04-15T12:00:34.776Z,70.83
2023-04-15T12:03:43.964Z,69.69
2023-04-15T12:06:46.348Z,61.30
2023-04-15T12:09:56.743Z,53.19
2023-04-15T12:12:58.687Z,52.43
2023-04-15T12:16:00.618Z,52.68
2023-04-15T12:19:09.625Z,50.78
2023-04-15T12:22:14.027Z,52.79
2023-04-15T12:25:16.112Z,52.47
2023-04-15T12:28:17.925Z,52.68
2023-04-15T12:31:20.105Z,55.62
2023-04-15T12:34:43.553Z,56.38
2023-04-15T12:37:45.451Z,53.46
2023-04-15T12:40:47.396Z,54.17
2023-04-15T12:43:49.814Z,53.20
2023-04-15T12:46:53.600Z,55.69
2023-04-15T12:49:55.516Z,54.87
2023-04-15T12:52:57.963Z,56.64
2023-04-15T12:56:00.168Z,59.41
2023-04-15T12:59:02.238Z,60.47
2023-04-15T13:02:04.450Z,61.04
2023-04-15T13:05:06.895Z,62.28
2023-04-15T13:08:08.792Z,61.79
2023-04-15T13:11:10.689Z,64.00
2023-04-15T13:14:13.188Z,64.87
2023-04-15T13:17:15.640Z,65.86
2023-04-15T13:20:17.763Z,64.96
2023-04-15T13:23:19.642Z,62.68
2023-04-15T13:26:21.887Z,62.56
2023-04-15T13:29:23.906Z,59.02
2023-04-15T13:32:26.329Z,60.98
2023-04-15T13:35:28.186Z,61.57
2023-04-15T13:38:30.404Z,61.77
2023-04-15T13:41:32.341Z,63.57
2023-04-15T13:44:34.127Z,67.00
2023-04-15T13:47:36.103Z,66.96
2023-04-15T13:50:39.560Z,69.21
2023-04-15T13:53:42.446Z,71.92
2023-04-15T13:56:44.406Z,73.98
2023-04-15T13:59:46.285Z,74.15
2023-04-15T14:02:48.956Z,75.57
2023-04-15T14:05:55.959Z,75.41
2023-04-15T14:08:57.862Z,75.94
2023-04-15T14:12:00.408Z,75.87
2023-04-15T14:15:02.457Z,79.16
2023-04-15T14:18:05.375Z,74.95
2023-04-15T14:21:07.446Z,76.26
2023-04-15T14:24:09.847Z,76.37
2023-04-15T14:27:12.618Z,74.04
2023-04-15T14:30:15.213Z,74.99
2023-04-15T14:33:17.418Z,74.32
2023-04-15T14:36:19.425Z,75.81
2023-04-15T14:39:21.488Z,76.66
2023-04-15T14:42:23.307Z,76.33
2023-04-15T14:45:25.212Z,79.21
2023-04-15T14:48:27.308Z,77.16
2023-04-15T14:51:29.447Z,79.53
2023-04-15T14:54:31.559Z,77.42
2023-04-15T14:57:33.489Z,75.93
2023-04-15T15:00:36.235Z,76.43
2023-04-15T15:03:39.244Z,74.28
2023-04-15T15:06:42.009Z,74.05
2023-04-15T15:09:43.906Z,73.50
2023-04-15T15:12:45.772Z,72.44
2023-04-15T15:15:49.693Z,73.35
2023-04-15T15:18:51.833Z,73.36
2023-04-15T15:21:53.859Z,73.16
2023-04-15T15:24:59.147Z,72.03
2023-04-15T15:28:00.969Z,72.21
2023-04-15T15:31:02.936Z,73.35
2023-04-15T15:34:04.804Z,73.43
2023-04-15T15:37:06.641Z,72.87
2023-04-15T15:40:08.959Z,73.25
2023-04-15T15:43:11.016Z,75.07
2023-04-15T15:46:13.018Z,72.20
2023-04-15T15:49:15.569Z,71.79
2023-04-15T15:52:17.488Z,72.11
2023-04-15T15:55:19.394Z,72.04
2023-04-15T15:58:21.404Z,72.74
2023-04-15T16:01:23.511Z,72.51
2023-04-15T16:04:26.157Z,75.29
2023-04-15T16:07:28.255Z,73.54
2023-04-15T16:10:30.540Z,74.10
2023-04-15T16:13:32.477Z,75.56
2023-04-15T16:16:34.374Z,74.67
2023-04-15T16:19:36.364Z,75.62
2023-04-15T16:22:39.236Z,76.29
2023-04-15T16:25:44.794Z,76.36
2023-04-15T16:28:46.899Z,75.35
2023-04-15T16:31:49.154Z,75.36
2023-04-15T16:34:52.661Z,76.17
2023-04-15T16:37:54.590Z,76.56
2023-04-15T16:40:59.669Z,77.38
2023-04-15T16:44:03.247Z,76.99
2023-04-15T16:47:05.694Z,77.95
2023-04-15T16:50:09.973Z,79.36
2023-04-15T16:53:12.326Z,79.10
2023-04-15T16:56:14.155Z,77.64
2023-04-15T16:59:16.539Z,79.68
2023-04-15T17:02:18.660Z,80.61
2023-04-15T17:05:21.080Z,81.84
2023-04-15T17:08:23.390Z,80.36
2023-04-15T17:11:26.158Z,82.65
2023-04-15T17:14:31.547Z,81.33
2023-04-15T17:17:33.409Z,82.08
2023-04-15T17:20:35.536Z,81.97
2023-04-15T17:23:37.418Z,82.99
2023-04-15T17:26:39.546Z,83.56
2023-04-15T17:29:41.692Z,82.10
2023-04-15T17:32:43.994Z,82.21
2023-04-15T17:35:46.138Z,82.63
2023-04-15T17:38:48.400Z,82.32
2023-04-15T17:41:50.534Z,82.01
2023-04-15T17:44:52.734Z,82.87
2023-04-15T17:47:54.942Z,81.43
2023-04-15T17:50:57.162Z,82.26
2023-04-15T17:53:59.512Z,82.48
2023-04-15T17:57:03.270Z,84.25
2023-04-15T18:00:06.996Z,84.89
2023-04-15T18:03:09.192Z,83.24
2023-04-15T18:06:11.748Z,82.21
2023-04-15T18:09:13.932Z,83.00
2023-04-15T18:12:16.082Z,82.86
2023-04-15T18:15:18.707Z,84.90
2023-04-15T18:18:20.930Z,85.23
2023-04-15T18:21:23.117Z,82.73
2023-04-15T18:24:25.354Z,83.40
2023-04-15T18:27:27.661Z,81.65
2023-04-15T18:30:29.717Z,82.47
2023-04-15T18:33:32.406Z,83.31
2023-04-15T18:36:34.540Z,83.00
2023-04-15T18:39:36.687Z,83.65
2023-04-15T18:42:39.026Z,83.21
2023-04-15T18:45:42.722Z,84.24
2023-04-15T18:48:44.993Z,85.16
2023-04-15T18:51:47.142Z,85.15
2023-04-15T18:54:49.316Z,84.78
2023-04-15T18:57:51.811Z,84.11
2023-04-15T19:00:54.492Z,84.00
2023-04-15T19:03:56.642Z,83.01
2023-04-15T19:07:01.566Z,83.55
2023-04-15T19:10:05.894Z,82.48
2023-04-15T19:13:08.160Z,82.31
2023-04-15T19:16:10.462Z,82.84
2023-04-15T19:19:14.651Z,83.71
2023-04-15T19:22:17.105Z,83.05
2023-04-15T19:25:19.316Z,83.99
2023-04-15T19:28:21.499Z,84.08
2023-04-15T19:31:23.723Z,85.32
2023-04-15T19:34:25.943Z,83.55
2023-04-15T19:37:28.172Z,83.10
2023-04-15T19:40:30.922Z,83.20
2023-04-15T19:43:35.664Z,84.25
2023-04-15T19:46:38.112Z,83.96
2023-04-15T19:49:40.803Z,83.22
2023-04-15T19:52:42.961Z,84.06
2023-04-15T19:55:45.780Z,84.10
2023-04-15T19:58:52.728Z,83.23
2023-04-15T20:01:55.022Z,82.76
2023-04-15T20:04:57.018Z,84.04
2023-04-15T20:08:01.489Z,83.26
2023-04-15T20:11:05.617Z,83.32
2023-04-15T20:14:07.861Z,82.56
2023-04-15T20:17:09.956Z,85.19
2023-04-15T20:20:12.823Z,83.82
2023-04-15T20:23:14.960Z,85.51
2023-04-15T20:26:18.185Z,85.97
2023-04-15T20:29:20.869Z,84.89
2023-04-15T20:32:24.328Z,85.99
2023-04-15T20:35:28.313Z,84.04
2023-04-15T20:38:30.530Z,83.18
2023-04-15T20:41:32.821Z,85.30
2023-04-15T20:44:34.869Z,86.60
2023-04-15T20:47:37.036Z,85.13
2023-04-15T20:50:39.505Z,84.99
2023-04-15T20:53:42.165Z,84.53
2023-04-15T20:56:44.360Z,83.71
2023-04-15T20:59:46.648Z,84.75
2023-04-15T21:02:48.868Z,84.27
2023-04-15T21:05:53.847Z,83.66
2023-04-15T21:08:57.998Z,84.66
2023-04-15T21:12:02.005Z,85.97
2023-04-15T21:15:07.883Z,86.03
2023-04-15T21:18:11.039Z,86.42
2023-04-15T21:21:12.943Z,86.52
2023-04-15T21:24:14.989Z,85.20
2023-04-15T21:27:16.882Z,84.03
2023-04-15T21:30:23.769Z,83.44
2023-04-15T21:33:26.296Z,82.64
2023-04-15T21:36:28.127Z,83.41
2023-04-15T21:39:39.032Z,83.58
2023-04-15T21:42:41.748Z,84.06
2023-04-15T21:46:21.049Z,85.43
2023-04-15T21:49:09.420Z,87.00
2023-04-15T21:52:11.275Z,85.40
2023-04-15T21:55:13.334Z,84.55
2023-04-15T21:58:15.449Z,86.76
2023-04-15T22:01:17.700Z,84.70
2023-04-15T22:04:20.250Z,86.46
2023-04-15T22:07:22.861Z,85.76
2023-04-15T22:10:24.957Z,85.72
2023-04-15T22:13:27.129Z,84.42
2023-04-15T22:16:29.044Z,85.71
2023-04-15T22:19:31.225Z,83.31
2023-04-15T22:22:43.305Z,85.41
2023-04-15T22:25:47.386Z,84.81
2023-04-15T22:28:49.547Z,85.84
2023-04-15T22:31:52.347Z,87.53
2023-04-15T22:34:54.472Z,86.65
2023-04-15T22:37:57.348Z,87.14
2023-04-15T22:41:15.646Z,86.29
2023-04-15T22:44:17.876Z,85.73
2023-04-15T22:47:19.958Z,85.76
2023-04-15T22:50:22.067Z,85.76
2023-04-15T22:53:23.914Z,86.55
2023-04-15T22:56:26.039Z,85.57
2023-04-15T22:59:27.942Z,85.99
2023-04-15T23:02:30.060Z,86.03
2023-04-15T23:05:32.223Z,85.34
2023-04-15T23:08:34.391Z,86.19
2023-04-15T23:11:36.425Z,86.40
2023-04-15T23:14:38.478Z,86.16
2023-04-15T23:17:42.689Z,85.90
2023-04-15T23:20:45.929Z,85.03
2023-04-15T23:23:47.865Z,84.86
2023-04-15T23:26:49.856Z,86.48
2023-04-15T23:29:51.978Z,85.98
2023-04-15T23:32:53.929Z,86.49
2023-04-15T23:35:55.922Z,85.49
2023-04-15T23:38:58.409Z,84.62
2023-04-15T23:42:00.583Z,84.92
2023-04-15T23:45:02.761Z,85.33
2023-04-15T23:48:06.262Z,86.11
2023-04-15T23:51:08.437Z,86.99
2023-04-15T23:54:10.577Z,85.75
2023-04-15T23:57:13.555Z,87.01
